createdAt,value
2019-04-27T00:04:52.833Z,57.69
2019-04-27T00:20:14.857Z,58.38
2019-04-27T00:35:27.084Z,59.01
2019-04-27T00:50:34.445Z,60.01
2019-04-27T01:05:43.046Z,60.20
2019-04-27T01:20:49.995Z,60.21
2019-04-27T01:35:56.867Z,59.96
2019-04-27T01:51:04.066Z,59.68
2019-04-27T02:06:11.346Z,60.25
2019-04-27T02:21:19.316Z,61.58
2019-04-27T02:36:27.366Z,62.44
2019-04-27T02:51:36.032Z,62.51
2019-04-27T03:06:43.878Z,63.30
2019-04-27T03:22:09.766Z,63.20
2019-04-27T03:37:17.071Z,63.26
2019-04-27T03:52:30.042Z,64.68
2019-04-27T04:07:40.249Z,64.21
2019-04-27T04:22:47.506Z,63.97
2019-04-27T04:37:54.794Z,63.65
2019-04-27T04:53:01.834Z,64.60
2019-04-27T05:08:09.119Z,64.39
2019-04-27T05:23:18.644Z,63.67
2019-04-27T05:38:25.933Z,64.24
2019-04-27T05:53:32.919Z,64.30
2019-04-27T06:08:39.485Z,64.37
2019-04-27T06:23:46.747Z,64.46
2019-04-27T06:38:53.091Z,64.08
2019-04-27T06:54:01.245Z,63.04
2019-04-27T07:09:10.760Z,63.02
2019-04-27T07:24:19.498Z,62.00
2019-04-27T07:39:26.747Z,61.91
2019-04-27T07:54:38.478Z,61.76
2019-04-27T08:09:45.390Z,61.25
2019-04-27T08:24:52.792Z,61.98
2019-04-27T08:40:01.768Z,62.55
2019-04-27T08:55:11.484Z,63.20
2019-04-27T09:10:20.610Z,60.07
2019-04-27T09:25:29.475Z,59.18
2019-04-27T09:40:37.204Z,58.70
2019-04-27T09:55:47.850Z,58.71
2019-04-27T10:10:56.753Z,59.24
2019-04-27T10:26:05.872Z,59.56
2019-04-27T10:41:15.819Z,60.53
2019-04-27T10:56:22.872Z,59.75
2019-04-27T11:11:36.408Z,59.87
2019-04-27T11:26:44.427Z,59.90
2019-04-27T11:41:51.584Z,59.71
2019-04-27T11:57:02.007Z,60.48
2019-04-27T12:12:14.983Z,60.42
2019-04-27T12:27:35.914Z,60.73
2019-04-27T12:42:44.591Z,59.36
2019-04-27T12:57:57.663Z,59.95
2019-04-27T13:13:06.331Z,60.48
2019-04-27T13:28:14.224Z,60.37
2019-04-27T13:43:28.275Z,59.96
2019-04-27T13:58:34.778Z,60.05
2019-04-27T14:13:42.321Z,60.72
2019-04-27T14:28:50.743Z,60.67
2019-04-27T14:44:07.751Z,60.46
2019-04-27T14:59:10.675Z,61.69
2019-04-27T15:14:20.650Z,60.90
2019-04-27T15:29:29.473Z,60.80
2019-04-27T15:44:44.165Z,61.92
2019-04-27T15:59:53.490Z,62.29
2019-04-27T16:15:05.070Z,63.12
2019-04-27T16:30:18.182Z,62.85
2019-04-27T16:45:27.212Z,62.52
2019-04-27T17:00:33.783Z,62.39
2019-04-27T17:15:55.135Z,62.93
2019-04-27T17:31:03.889Z,63.27
2019-04-27T17:46:11.514Z,63.24
2019-04-27T18:01:22.607Z,63.58
2019-04-27T18:16:33.780Z,63.49
2019-04-27T18:31:38.324Z,63.63
2019-04-27T18:46:45.003Z,63.68
2019-04-27T19:01:52.179Z,63.66
2019-04-27T19:16:58.995Z,63.54
2019-04-27T19:32:07.927Z,63.88
2019-04-27T19:47:15.572Z,64.28
2019-04-27T20:02:29.816Z,64.35
2019-04-27T20:17:42.108Z,64.37
2019-04-27T20:32:57.072Z,64.66
2019-04-27T20:48:04.320Z,65.13
2019-04-27T21:03:12.585Z,65.16
2019-04-27T21:18:19.415Z,65.68
2019-04-27T21:33:28.186Z,65.76
2019-04-27T21:48:34.938Z,65.69
2019-04-27T22:03:44.816Z,65.79
2019-04-27T22:18:52.122Z,65.73
2019-04-27T22:34:11.039Z,66.15
2019-04-27T22:49:17.648Z,66.49
2019-04-27T23:04:36.155Z,66.31
2019-04-27T23:19:43.235Z,66.16
2019-04-27T23:34:51.420Z,66.12
2019-04-27T23:50:00.822Z,66.45
